Time;durP1;ratioP1;P1;durP2;ratioP2;P2;SDS_P1;SDS_P2;PMS_P1;PMS_P2;Temp;Humidity;BMP_temperature;BMP_pressure;BME280_temperature;BME280_humidity;BME280_pressure;Samples;Min_cycle;Max_cycle;Signal;HPM_P1;HPM_P2
2020/12/15 00:01:57;;;;;;;5.03;4.07;;;16.30;62.20;;;;;;4880441;29;20055;-79
2020/12/15 00:04:43;;;;;;;5.13;4.18;;;16.30;62.20;;;;;;4870964;29;20064;-80
2020/12/15 00:07:29;;;;;;;6.25;4.28;;;16.30;62.30;;;;;;4870414;29;20130;-78
2020/12/15 00:09:54;;;;;;;5.20;4.40;;;16.30;62.20;;;;;;4884079;29;20091;-80
2020/12/15 00:12:41;;;;;;;4.97;4.05;;;16.30;62.20;;;;;;4870545;29;20136;-79
2020/12/15 00:15:08;;;;;;;6.57;4.13;;;16.30;62.20;;;;;;4884497;29;20049;-79
2020/12/15 00:17:54;;;;;;;6.75;4.70;;;16.30;62.30;;;;;;4870134;29;20083;-78
2020/12/15 00:20:20;;;;;;;5.65;4.65;;;16.30;62.30;;;;;;4883725;29;20072;-79
2020/12/15 00:22:46;;;;;;;7.82;4.80;;;16.30;62.30;;;;;;4884338;29;20053;-79
2020/12/15 00:25:12;;;;;;;5.50;4.00;;;16.30;62.40;;;;;;4867778;29;20102;-79
2020/12/15 00:27:38;;;;;;;5.95;4.88;;;16.30;63.00;;;;;;4867561;29;20445;-80
2020/12/15 00:30:04;;;;;;;4.93;4.15;;;16.30;62.40;;;;;;4884000;29;20045;-79
2020/12/15 00:32:30;;;;;;;7.00;4.13;;;16.30;62.40;;;;;;4895620;29;20059;-79
2020/12/15 00:34:56;;;;;;;5.68;4.25;;;16.30;62.40;;;;;;4902877;29;20056;-78
2020/12/15 00:37:41;;;;;;;5.45;4.40;;;16.30;62.40;;;;;;4888759;29;20434;-79
2020/12/15 00:40:30;;;;;;;5.60;4.72;;;16.30;63.10;;;;;;4888547;29;20438;-79
2020/12/15 00:42:56;;;;;;;5.78;4.28;;;16.30;62.50;;;;;;4885969;29;20450;-79
2020/12/15 00:45:22;;;;;;;5.85;4.50;;;16.20;62.40;;;;;;4902664;29;20052;-80
2020/12/15 00:48:07;;;;;;;7.22;4.40;;;16.30;62.50;;;;;;4889430;29;20045;-79
2020/12/15 00:50:53;;;;;;;5.20;4.63;;;16.20;62.40;;;;;;4888676;29;20076;-80
2020/12/15 00:53:39;;;;;;;6.70;4.78;;;16.20;62.50;;;;;;4887498;29;20056;-79
2020/12/15 00:56:25;;;;;;;5.53;4.35;;;16.20;62.50;;;;;;4889142;29;20343;-79
2020/12/15 00:59:11;;;;;;;6.53;5.07;;;16.20;62.60;;;;;;4888067;29;20053;-80
2020/12/15 01:02:03;;;;;;;7.65;4.90;;;16.20;62.60;;;;;;4880310;29;20048;-80
2020/12/15 01:04:29;;;;;;;6.50;4.97;;;16.20;62.50;;;;;;4895349;29;20048;-79
2020/12/15 01:07:15;;;;;;;5.45;4.95;;;16.20;62.50;;;;;;4888490;29;20118;-79
2020/12/15 01:09:40;;;;;;;5.00;4.50;;;16.20;62.50;;;;;;4902031;29;20044;-79
2020/12/15 01:12:11;;;;;;;5.53;4.93;;;16.20;62.50;;;;;;4901300;29;20462;-78
2020/12/15 01:14:37;;;;;;;5.82;5.10;;;16.20;62.50;;;;;;4885195;29;20076;-79
2020/12/15 01:17:07;;;;;;;5.75;4.57;;;16.20;62.50;;;;;;4885623;29;20108;-78
2020/12/15 01:19:52;;;;;;;6.25;4.45;;;16.20;62.60;;;;;;4888298;29;20151;-80
2020/12/15 01:22:18;;;;;;;5.22;4.72;;;16.20;62.60;;;;;;4901574;29;20365;-80
2020/12/15 01:24:44;;;;;;;5.55;5.00;;;16.20;62.60;;;;;;4901860;29;20040;-80
2020/12/15 01:27:10;;;;;;;5.93;4.80;;;16.10;62.50;;;;;;4901464;29;20044;-79
2020/12/15 01:29:56;;;;;;;5.85;4.65;;;16.20;62.60;;;;;;4888328;29;20057;-79
2020/12/15 01:32:22;;;;;;;6.43;5.10;;;16.10;62.60;;;;;;4888220;29;20416;-78
2020/12/15 01:34:47;;;;;;;5.22;4.72;;;16.10;62.50;;;;;;4882884;29;20358;-79
2020/12/15 01:37:13;;;;;;;5.28;4.60;;;16.10;62.50;;;;;;4883311;29;20069;-79
2020/12/15 01:39:39;;;;;;;6.30;5.00;;;16.10;62.60;;;;;;4882372;29;20411;-80
2020/12/15 01:42:07;;;;;;;4.97;4.45;;;16.10;62.50;;;;;;4882723;29;20044;-79
2020/12/15 01:44:53;;;;;;;5.40;4.85;;;16.10;62.50;;;;;;4877500;29;20045;-79
2020/12/15 01:47:19;;;;;;;5.80;5.20;;;16.10;62.60;;;;;;4884853;29;20044;-80
2020/12/15 01:49:45;;;;;;;5.10;4.60;;;16.10;62.60;;;;;;4901149;29;20040;-78
2020/12/15 01:52:14;;;;;;;5.65;4.93;;;16.10;62.60;;;;;;4900883;29;20040;-80
2020/12/15 01:54:43;;;;;;;5.13;4.65;;;16.10;62.60;;;;;;4901587;29;20044;-79
2020/12/15 01:57:09;;;;;;;5.10;4.60;;;16.10;62.70;;;;;;4900664;29;20051;-79
2020/12/15 01:59:34;;;;;;;5.38;4.68;;;16.10;62.70;;;;;;4900897;29;20052;-80
2020/12/15 02:02:00;;;;;;;5.97;4.70;;;16.10;62.70;;;;;;4901281;29;20407;-79
2020/12/15 02:04:26;;;;;;;5.45;4.88;;;16.10;62.70;;;;;;4900931;29;20044;-79
2020/12/15 02:07:12;;;;;;;5.43;4.90;;;16.10;62.70;;;;;;4887732;29;20052;-79
2020/12/15 02:09:38;;;;;;;5.70;4.72;;;16.00;62.70;;;;;;4901046;29;20049;-80
2020/12/15 02:12:24;;;;;;;6.00;4.40;;;16.00;62.60;;;;;;4887103;29;20135;-78
2020/12/15 02:14:50;;;;;;;5.65;4.53;;;16.10;62.70;;;;;;4892829;29;20125;-78
2020/12/15 02:17:16;;;;;;;5.03;4.28;;;16.10;62.70;;;;;;4865444;29;20056;-79
2020/12/15 02:20:07;;;;;;;5.55;4.70;;;16.00;62.60;;;;;;4855375;29;20049;-78
2020/12/15 02:22:33;;;;;;;5.53;4.63;;;16.00;62.60;;;;;;4882129;29;20127;-80
2020/12/15 02:25:00;;;;;;;5.28;4.78;;;16.00;62.70;;;;;;4865722;29;20358;-79
2020/12/15 02:27:46;;;;;;;5.72;4.60;;;16.00;62.70;;;;;;4868181;29;20049;-79
2020/12/15 02:30:32;;;;;;;4.50;4.10;;;16.00;62.70;;;;;;4868376;29;20132;-78
2020/12/15 02:33:17;;;;;;;7.25;4.63;;;16.00;62.70;;;;;;4869102;29;20136;-78
2020/12/15 02:36:03;;;;;;;4.88;4.38;;;16.00;62.60;;;;;;4884960;29;20327;-79
2020/12/15 02:38:29;;;;;;;5.22;4.53;;;16.00;62.60;;;;;;4900296;29;20055;-79
2020/12/15 02:40:55;;;;;;;6.10;4.45;;;16.00;62.60;;;;;;4900254;29;20055;-79
2020/12/15 02:43:42;;;;;;;5.05;4.45;;;16.00;62.50;;;;;;4886778;29;20079;-80
2020/12/15 02:46:09;;;;;;;4.65;4.13;;;16.00;62.60;;;;;;4900151;29;20119;-79
2020/12/15 02:48:34;;;;;;;5.30;4.32;;;16.00;63.20;;;;;;4899981;29;20075;-80
2020/12/15 02:51:00;;;;;;;5.53;3.83;;;16.00;62.50;;;;;;4899729;29;20366;-79
2020/12/15 02:53:26;;;;;;;4.85;4.22;;;16.00;62.50;;;;;;4899821;29;20080;-80
2020/12/15 02:55:52;;;;;;;6.43;4.28;;;16.00;62.50;;;;;;4900160;29;20434;-79
2020/12/15 02:58:17;;;;;;;5.50;4.55;;;16.00;62.40;;;;;;4899725;29;20064;-78
2020/12/15 03:00:43;;;;;;;5.60;4.38;;;16.00;62.40;;;;;;4900164;29;20037;-79
2020/12/15 03:03:09;;;;;;;5.70;4.38;;;16.00;62.50;;;;;;4899826;29;20335;-79
2020/12/15 03:05:35;;;;;;;4.53;3.90;;;16.00;62.50;;;;;;4870092;29;20085;-79
2020/12/15 03:08:01;;;;;;;5.70;4.75;;;16.00;62.40;;;;;;4865028;29;20044;-78
2020/12/15 03:10:27;;;;;;;6.85;4.47;;;16.00;62.40;;;;;;4864967;29;20044;-80
2020/12/15 03:12:53;;;;;;;4.63;3.90;;;15.90;62.30;;;;;;4881391;29;20059;-79
2020/12/15 03:15:19;;;;;;;5.38;4.00;;;15.90;62.30;;;;;;4881307;29;20051;-80
2020/12/15 03:17:45;;;;;;;5.90;3.95;;;15.90;62.30;;;;;;4884305;29;20049;-80
2020/12/15 03:20:11;;;;;;;5.85;3.88;;;15.90;62.30;;;;;;4885510;29;20236;-79
2020/12/15 03:22:37;;;;;;;4.78;4.20;;;16.00;62.40;;;;;;4884800;29;20366;-80
2020/12/15 03:25:25;;;;;;;5.20;3.85;;;15.90;62.20;;;;;;4871595;29;20091;-80
2020/12/15 03:28:12;;;;;;;4.63;4.00;;;15.90;62.30;;;;;;4871237;29;20131;-79
2020/12/15 03:30:58;;;;;;;5.22;3.90;;;15.90;62.30;;;;;;4871620;29;20057;-80
2020/12/15 03:33:45;;;;;;;5.28;4.30;;;15.90;62.30;;;;;;4858526;29;20056;-79
2020/12/15 03:36:31;;;;;;;5.50;3.75;;;15.90;62.30;;;;;;4876110;29;20076;-79
2020/12/15 03:38:56;;;;;;;5.30;3.78;;;15.90;62.20;;;;;;4902921;29;20048;-79
2020/12/15 03:41:22;;;;;;;4.82;3.97;;;15.80;62.20;;;;;;4887437;29;20350;-79
2020/12/15 03:43:48;;;;;;;4.35;3.80;;;15.80;62.20;;;;;;4903619;29;20048;-80
2020/12/15 03:46:14;;;;;;;6.20;4.13;;;15.80;62.20;;;;;;4903421;29;20120;-79
2020/12/15 03:48:59;;;;;;;6.10;4.43;;;15.80;62.20;;;;;;4889981;29;20048;-79
2020/12/15 03:51:25;;;;;;;5.00;4.05;;;15.80;62.20;;;;;;4903469;29;20351;-79
2020/12/15 03:54:12;;;;;;;6.38;4.00;;;15.80;62.20;;;;;;4876985;29;20044;-80
2020/12/15 03:56:38;;;;;;;6.35;4.75;;;15.80;62.20;;;;;;4903379;29;20048;-79
2020/12/15 03:59:03;;;;;;;4.72;3.85;;;15.80;62.20;;;;;;4902943;29;20119;-79
2020/12/15 04:01:29;;;;;;;4.25;3.78;;;15.80;62.30;;;;;;4897109;29;20049;-79
2020/12/15 04:04:15;;;;;;;4.53;4.05;;;15.80;62.30;;;;;;4871370;29;20049;-78
2020/12/15 04:06:41;;;;;;;5.00;4.40;;;15.80;62.20;;;;;;4884310;29;20350;-79
2020/12/15 04:09:06;;;;;;;4.82;3.90;;;15.80;62.20;;;;;;4884438;29;20044;-79
2020/12/15 04:11:32;;;;;;;5.80;4.30;;;15.80;62.20;;;;;;4884259;29;20040;-79
2020/12/15 04:13:58;;;;;;;6.10;4.13;;;15.80;62.20;;;;;;4883906;29;20045;-79
2020/12/15 04:16:24;;;;;;;4.65;4.07;;;15.80;62.20;;;;;;4883984;29;20061;-79
2020/12/15 04:18:50;;;;;;;6.25;4.05;;;15.80;62.20;;;;;;4884359;29;20087;-79
2020/12/15 04:21:16;;;;;;;5.10;3.80;;;15.80;62.20;;;;;;4884573;29;20371;-80
2020/12/15 04:24:02;;;;;;;6.35;4.38;;;15.80;62.20;;;;;;4870046;29;20045;-79
2020/12/15 04:26:47;;;;;;;4.70;3.97;;;15.80;62.20;;;;;;4875270;29;20049;-79
2020/12/15 04:29:13;;;;;;;5.05;3.90;;;15.70;62.20;;;;;;4902857;29;20041;-80
2020/12/15 04:31:59;;;;;;;4.93;3.85;;;15.70;62.20;;;;;;4876131;29;20059;-79
2020/12/15 04:34:25;;;;;;;5.80;4.68;;;15.70;62.20;;;;;;4902662;29;20036;-79
2020/12/15 04:36:51;;;;;;;4.68;4.13;;;15.80;62.30;;;;;;4902338;29;20044;-79
2020/12/15 04:39:17;;;;;;;6.30;4.35;;;15.70;62.20;;;;;;4884831;29;20048;-80
2020/12/15 04:42:02;;;;;;;7.15;4.97;;;15.70;62.20;;;;;;4870386;29;20075;-79
2020/12/15 04:44:29;;;;;;;5.32;4.38;;;15.70;62.30;;;;;;4883713;29;20041;-79
2020/12/15 04:47:15;;;;;;;5.90;4.80;;;15.70;62.30;;;;;;4870420;29;20056;-79
2020/12/15 04:50:05;;;;;;;5.57;4.15;;;15.70;62.30;;;;;;4883182;29;20048;-79
2020/12/15 04:52:53;;;;;;;6.00;4.68;;;15.70;62.20;;;;;;4883482;29;20051;-80
2020/12/15 04:55:20;;;;;;;6.57;4.93;;;15.70;62.30;;;;;;4866833;29;20077;-79
2020/12/15 04:57:47;;;;;;;5.95;5.03;;;15.70;62.50;;;;;;4882943;29;20346;-80
2020/12/15 05:00:14;;;;;;;5.97;4.32;;;15.70;62.50;;;;;;4883728;29;20106;-79
2020/12/15 05:02:41;;;;;;;6.30;4.28;;;15.70;62.50;;;;;;4883814;29;20045;-79
2020/12/15 05:05:08;;;;;;;6.22;4.78;;;15.70;62.50;;;;;;4867354;29;20066;-79
2020/12/15 05:07:40;;;;;;;5.75;4.50;;;15.70;62.60;;;;;;4885715;29;20052;-79
2020/12/15 05:10:26;;;;;;;6.07;4.65;;;15.70;62.60;;;;;;4888337;29;20402;-79
2020/12/15 05:12:52;;;;;;;6.13;4.65;;;15.70;62.60;;;;;;4902054;29;20044;-79
2020/12/15 05:15:19;;;;;;;5.50;4.93;;;15.70;62.60;;;;;;4885496;29;20056;-79
2020/12/15 05:18:05;;;;;;;5.38;4.50;;;15.70;62.60;;;;;;4887848;29;20469;-79
2020/12/15 05:20:51;;;;;;;7.65;4.65;;;15.70;62.60;;;;;;4887970;29;20055;-78
2020/12/15 05:23:21;;;;;;;6.13;4.65;;;15.70;62.60;;;;;;4901370;29;20123;-79
2020/12/15 05:26:06;;;;;;;7.13;5.00;;;15.70;62.60;;;;;;4887447;29;20063;-79
2020/12/15 05:28:32;;;;;;;6.93;5.25;;;15.70;62.70;;;;;;4901304;29;20410;-80
2020/12/15 05:31:18;;;;;;;8.23;4.60;;;15.70;62.70;;;;;;4887963;29;20102;-79
2020/12/15 05:33:50;;;;;;;5.75;4.50;;;15.70;62.70;;;;;;4901459;29;20446;-80
2020/12/15 05:36:57;;;;;;;5.78;4.88;;;15.70;62.70;;;;;;4887489;29;20049;-78
2020/12/15 05:39:24;;;;;;;5.78;4.72;;;15.70;62.70;;;;;;4883955;29;20048;-79
2020/12/15 05:42:03;;;;;;;4.95;4.35;;;15.70;62.70;;;;;;4882521;29;20081;-80
2020/12/15 05:44:30;;;;;;;6.60;4.97;;;15.70;62.70;;;;;;4897381;29;20165;-80
2020/12/15 05:47:23;;;;;;;6.97;5.00;;;15.70;62.70;;;;;;4869087;29;20122;-80
2020/12/15 05:49:51;;;;;;;6.57;4.82;;;15.70;62.70;;;;;;4894237;29;20059;-80
2020/12/15 05:52:17;;;;;;;6.63;4.88;;;15.70;62.60;;;;;;4900018;29;20111;-79
2020/12/15 05:54:42;;;;;;;6.22;4.13;;;15.70;62.60;;;;;;4900017;29;20049;-79
2020/12/15 05:57:30;;;;;;;7.13;5.15;;;15.70;62.60;;;;;;4886353;29;20052;-74
2020/12/15 06:00:07;;;;;;;7.18;4.30;;;15.70;62.70;;;;;;4901105;29;20490;-82
2020/12/15 06:03:06;;;;;;;8.38;4.25;;;15.70;62.60;;;;;;4886519;29;20085;-80
2020/12/15 06:05:36;;;;;;;6.72;3.72;;;15.70;62.60;;;;;;4900686;29;20036;-80
2020/12/15 06:08:04;;;;;;;5.68;3.30;;;15.80;62.60;;;;;;4884223;29;20052;-75
2020/12/15 06:10:31;;;;;;;6.00;2.97;;;15.90;62.70;;;;;;4900744;29;20040;-79
2020/12/15 06:13:01;;;;;;;7.30;3.10;;;16.00;62.70;;;;;;4882800;29;20067;-81
2020/12/15 06:15:29;;;;;;;9.20;3.38;;;16.10;63.00;;;;;;4899987;29;20040;-78
2020/12/15 06:18:15;;;;;;;9.57;2.60;;;16.30;62.90;;;;;;4880756;29;20511;-80
2020/12/15 06:21:09;;;;;;;6.10;3.83;;;16.40;62.80;;;;;;4885674;29;20123;-80
2020/12/15 06:23:59;;;;;;;9.23;3.45;;;16.50;62.90;;;;;;4886978;29;20116;-78
2020/12/15 06:26:27;;;;;;;6.18;3.03;;;16.50;62.70;;;;;;4900489;29;20059;-83
2020/12/15 06:29:01;;;;;;;7.75;3.45;;;16.60;62.70;;;;;;4884020;29;20047;-82
2020/12/15 06:31:27;;;;;;;7.53;3.72;;;16.60;62.90;;;;;;4900513;29;20047;-83
2020/12/15 06:34:01;;;;;;;6.72;2.95;;;16.70;62.90;;;;;;4884180;29;20037;-83
2020/12/15 06:36:48;;;;;;;6.30;3.03;;;16.70;63.20;;;;;;4886514;29;20048;-83
2020/12/15 06:39:14;;;;;;;4.97;2.85;;;16.80;63.20;;;;;;4884468;29;20036;-83
2020/12/15 06:41:40;;;;;;;7.88;2.90;;;16.80;63.30;;;;;;4900429;29;20043;-84
2020/12/15 06:44:07;;;;;;;5.40;2.60;;;16.90;63.30;;;;;;4900371;29;20403;-82
2020/12/15 06:46:33;;;;;;;7.00;3.00;;;16.90;64.00;;;;;;4883510;29;20422;-84
2020/12/15 06:49:36;;;;;;;4.60;2.70;;;16.90;63.50;;;;;;4873119;29;20451;-82
2020/12/15 06:52:28;;;;;;;8.00;2.92;;;17.00;63.50;;;;;;4885222;29;20044;-82
2020/12/15 06:55:14;;;;;;;7.35;2.45;;;17.00;63.70;;;;;;4873231;29;20480;-76
2020/12/15 06:58:00;;;;;;;9.10;3.08;;;17.10;63.80;;;;;;4886543;29;20044;-81
2020/12/15 07:00:46;;;;;;;7.82;3.10;;;17.20;64.10;;;;;;4885646;29;20059;-82
2020/12/15 07:03:12;;;;;;;7.22;2.92;;;17.20;64.10;;;;;;4883315;29;20040;-81
2020/12/15 07:06:16;;;;;;;9.30;3.15;;;17.20;64.10;;;;;;4885764;29;20450;-82
2020/12/15 07:09:09;;;;;;;8.60;2.88;;;17.30;64.30;;;;;;4886149;29;20059;-79
2020/12/15 07:11:35;;;;;;;13.15;3.10;;;17.30;64.00;;;;;;4900343;29;20120;-77
2020/12/15 07:14:22;;;;;;;10.05;3.60;;;17.40;64.00;;;;;;4886408;29;20056;-80
2020/12/15 07:16:51;;;;;;;11.88;3.75;;;17.40;63.90;;;;;;4900093;29;20456;-80
2020/12/15 07:19:37;;;;;;;6.50;3.40;;;17.40;63.70;;;;;;4886411;29;20048;-80
2020/12/15 07:22:23;;;;;;;11.20;3.95;;;17.40;63.60;;;;;;4885864;29;20052;-80
2020/12/15 07:24:50;;;;;;;9.70;3.20;;;17.30;63.50;;;;;;4899978;29;20128;-79
2020/12/15 07:27:18;;;;;;;10.50;3.83;;;17.30;63.50;;;;;;4899791;29;20044;-80
2020/12/15 07:29:52;;;;;;;10.90;3.25;;;17.30;63.40;;;;;;4900024;29;20044;-79
2020/12/15 07:32:19;;;;;;;7.45;3.05;;;17.30;63.40;;;;;;4899505;29;20100;-80
2020/12/15 07:34:44;;;;;;;8.07;4.50;;;17.30;63.30;;;;;;4895292;29;20041;-79
2020/12/15 07:37:17;;;;;;;8.00;4.57;;;17.30;63.30;;;;;;4894907;29;20060;-77
2020/12/15 07:40:05;;;;;;;9.45;4.20;;;17.30;63.50;;;;;;4883317;29;20382;-77
2020/12/15 07:42:32;;;;;;;14.43;4.95;;;17.20;63.50;;;;;;4893935;29;20048;-80
2020/12/15 07:45:00;;;;;;;9.90;4.60;;;17.20;63.50;;;;;;4900919;29;20449;-78
2020/12/15 07:47:46;;;;;;;7.22;4.22;;;17.20;63.50;;;;;;4884235;29;20155;-79
2020/12/15 07:50:15;;;;;;;8.50;4.50;;;17.30;63.40;;;;;;4866667;29;20128;-78
2020/12/15 07:53:11;;;;;;;9.45;4.30;;;17.30;63.40;;;;;;4885006;29;20060;-77
2020/12/15 07:55:37;;;;;;;7.97;3.63;;;17.30;63.40;;;;;;4898130;29;20055;-77
2020/12/15 07:58:23;;;;;;;8.23;3.92;;;17.30;63.40;;;;;;4885120;29;20082;-77
2020/12/15 08:00:50;;;;;;;6.80;3.95;;;17.40;63.50;;;;;;4899449;29;20048;-78
2020/12/15 08:03:18;;;;;;;5.43;3.65;;;17.40;63.40;;;;;;4900715;29;20040;-77
2020/12/15 08:05:44;;;;;;;6.95;3.60;;;17.50;63.50;;;;;;4902538;29;20049;-77
2020/12/15 08:08:11;;;;;;;5.65;3.10;;;17.50;63.40;;;;;;4901230;29;20036;-81
2020/12/15 08:10:57;;;;;;;6.63;3.20;;;17.50;63.40;;;;;;4876405;29;20155;-82
2020/12/15 08:13:46;;;;;;;5.78;2.97;;;17.50;63.40;;;;;;4888944;29;20849;-81
2020/12/15 08:16:12;;;;;;;6.50;3.33;;;17.60;63.40;;;;;;4902292;29;20036;-81
2020/12/15 08:18:38;;;;;;;6.65;3.35;;;17.60;63.30;;;;;;4901257;29;20361;-81
2020/12/15 08:21:38;;;;;;;6.43;2.97;;;17.70;63.20;;;;;;4887797;29;20045;-77
2020/12/15 08:24:09;;;;;;;6.25;3.10;;;17.70;63.20;;;;;;4902521;29;20072;-81
2020/12/15 08:26:55;;;;;;;6.18;3.17;;;17.70;63.10;;;;;;4874361;29;20040;-77
2020/12/15 08:29:26;;;;;;;5.10;3.20;;;17.70;63.10;;;;;;4902209;29;20349;-82
2020/12/15 08:31:55;;;;;;;6.00;3.88;;;17.70;63.10;;;;;;4899276;29;20037;-82
2020/12/15 08:34:24;;;;;;;6.47;3.65;;;17.70;63.10;;;;;;4885365;29;20056;-81
2020/12/15 08:37:11;;;;;;;9.23;3.70;;;17.70;63.20;;;;;;4876538;29;20241;-80
2020/12/15 08:39:50;;;;;;;7.65;3.65;;;17.70;63.30;;;;;;4914065;29;20046;-80
2020/12/15 08:42:17;;;;;;;10.70;3.40;;;17.70;63.40;;;;;;4894270;29;20097;-80
2020/12/15 08:44:49;;;;;;;8.38;3.28;;;17.70;63.40;;;;;;4883430;29;20123;-86
2020/12/15 08:47:20;;;;;;;6.78;3.30;;;17.60;63.30;;;;;;4867252;29;20041;-80
2020/12/15 08:49:48;;;;;;;7.85;3.72;;;17.60;63.50;;;;;;4851711;29;20052;-80
2020/12/15 08:52:21;;;;;;;15.30;4.78;;;17.60;63.60;;;;;;4877220;29;20033;-77
2020/12/15 08:54:47;;;;;;;6.45;4.35;;;17.60;63.60;;;;;;4883779;29;20032;-84
2020/12/15 08:57:43;;;;;;;10.15;4.60;;;17.60;63.60;;;;;;4887656;29;20127;-81
2020/12/15 09:00:33;;;;;;;7.53;4.55;;;17.60;63.70;;;;;;4890473;29;20044;-77
2020/12/15 09:03:09;;;;;;;13.57;5.53;;;17.50;63.60;;;;;;4906489;29;20032;-80
2020/12/15 09:05:50;;;;;;;7.25;4.95;;;17.50;64.20;;;;;;4901531;29;20037;-79
2020/12/15 09:08:23;;;;;;;9.85;4.43;;;17.50;63.90;;;;;;4901016;29;20071;-81
2020/12/15 09:11:24;;;;;;;9.05;5.90;;;17.50;63.90;;;;;;4882237;29;20041;-81
2020/12/15 09:17:47;;;;;;;8.13;5.60;;;17.50;63.70;;;;;;4896354;29;20399;-81
2020/12/15 09:20:35;;;;;;;10.63;5.88;;;17.50;63.60;;;;;;4861904;29;20040;-78
2020/12/15 09:23:30;;;;;;;15.98;6.07;;;17.40;63.80;;;;;;4879044;29;20148;-79
2020/12/15 09:32:54;;;;;;;10.95;5.85;;;17.40;63.80;;;;;;4829656;29;20064;-78
2020/12/15 09:35:33;;;;;;;7.68;5.30;;;17.40;63.90;;;;;;4819450;29;20031;-78
2020/12/15 09:38:21;;;;;;;12.05;5.93;;;17.30;63.80;;;;;;4824932;29;20046;-78
2020/12/15 09:44:59;;;;;;;8.00;5.38;;;17.30;63.80;;;;;;4757703;30;20140;-78
2020/12/15 09:47:25;;;;;;;7.00;4.75;;;17.30;63.80;;;;;;4761189;30;20051;-79
2020/12/15 09:49:51;;;;;;;8.52;4.38;;;17.20;63.90;;;;;;4794916;29;20068;-79
2020/12/15 09:52:17;;;;;;;8.98;4.72;;;17.20;63.80;;;;;;4807009;29;20440;-76
2020/12/15 09:55:03;;;;;;;4.50;3.70;;;17.20;63.70;;;;;;4829799;29;20395;-78
2020/12/15 09:57:48;;;;;;;7.63;4.68;;;17.20;63.60;;;;;;4885666;29;20040;-77
2020/12/15 10:00:34;;;;;;;5.93;3.90;;;17.30;63.60;;;;;;4887000;29;20044;-77
2020/12/15 10:03:00;;;;;;;8.73;4.63;;;17.40;63.50;;;;;;4897015;29;20140;-79
2020/12/15 10:05:26;;;;;;;6.10;4.35;;;17.40;63.50;;;;;;4904132;29;20057;-81
2020/12/15 10:07:52;;;;;;;7.00;4.45;;;17.40;63.40;;;;;;4888487;29;20402;-78
2020/12/15 10:10:38;;;;;;;10.77;4.32;;;17.50;63.50;;;;;;4883258;29;20051;-82
2020/12/15 10:13:04;;;;;;;7.55;4.40;;;17.50;63.50;;;;;;4900071;29;20044;-83
2020/12/15 10:15:29;;;;;;;9.15;4.20;;;17.50;63.40;;;;;;4904420;29;20048;-81
2020/12/15 10:17:56;;;;;;;5.13;3.63;;;17.50;63.40;;;;;;4899105;29;20104;-79
2020/12/15 10:20:23;;;;;;;7.25;3.72;;;17.50;63.40;;;;;;4906341;29;20058;-79
2020/12/15 10:22:48;;;;;;;9.00;3.85;;;17.50;63.40;;;;;;4911942;29;20045;-79
2020/12/15 10:25:14;;;;;;;6.57;3.25;;;17.60;63.50;;;;;;4910756;29;20133;-79
2020/12/15 10:27:41;;;;;;;5.97;4.00;;;17.60;63.50;;;;;;4899821;29;20414;-81
2020/12/15 10:30:26;;;;;;;3.55;3.22;;;17.60;63.50;;;;;;4885841;29;20063;-80
2020/12/15 10:32:52;;;;;;;9.13;3.60;;;17.60;63.40;;;;;;4887229;29;20044;-79
2020/12/15 10:35:19;;;;;;;5.35;3.70;;;17.60;63.40;;;;;;4901159;29;20130;-78
2020/12/15 10:37:45;;;;;;;5.95;4.00;;;17.60;63.60;;;;;;4899222;29;20116;-80
2020/12/15 10:40:10;;;;;;;5.97;3.70;;;17.70;63.70;;;;;;4892827;29;20044;-80
2020/12/15 10:42:36;;;;;;;7.53;3.95;;;17.70;63.90;;;;;;4906637;29;20055;-77
2020/12/15 10:45:22;;;;;;;5.78;3.92;;;17.70;63.80;;;;;;4882481;29;20059;-78
2020/12/15 10:48:01;;;;;;;6.10;3.83;;;17.70;63.90;;;;;;4892722;29;20398;-78
2020/12/15 10:50:27;;;;;;;5.95;4.03;;;17.80;63.90;;;;;;4889348;29;20096;-80
2020/12/15 10:53:21;;;;;;;6.80;3.50;;;17.80;63.80;;;;;;4890108;29;20100;-79
2020/12/15 10:56:09;;;;;;;11.50;4.55;;;17.80;63.80;;;;;;4865572;29;20398;-78
2020/12/15 10:58:35;;;;;;;7.50;3.33;;;17.80;63.70;;;;;;4880981;29;20068;-80
2020/12/15 11:01:01;;;;;;;5.90;3.60;;;17.80;63.70;;;;;;4892048;29;20029;-79
2020/12/15 11:03:27;;;;;;;6.90;3.58;;;17.80;63.80;;;;;;4889566;29;20135;-80
2020/12/15 11:05:53;;;;;;;6.80;3.50;;;17.90;63.80;;;;;;4904755;29;20099;-79
2020/12/15 11:08:39;;;;;;;6.35;3.42;;;17.90;63.80;;;;;;4884025;29;20052;-79
2020/12/15 11:11:25;;;;;;;6.70;3.78;;;18.00;63.80;;;;;;4890141;29;20047;-80
2020/12/15 11:13:54;;;;;;;6.03;3.65;;;18.00;63.90;;;;;;4888397;29;20111;-79
2020/12/15 11:16:23;;;;;;;4.97;3.88;;;18.00;63.80;;;;;;4883076;29;20473;-80
2020/12/15 11:18:51;;;;;;;5.65;3.80;;;18.00;63.80;;;;;;4883503;29;20076;-79
2020/12/15 11:21:17;;;;;;;6.70;3.67;;;18.00;63.70;;;;;;4906234;29;20078;-81
2020/12/15 11:23:43;;;;;;;8.73;3.80;;;18.00;63.70;;;;;;4899665;29;20407;-79
2020/12/15 11:26:30;;;;;;;7.05;3.92;;;18.00;63.70;;;;;;4867894;29;20048;-80
2020/12/15 11:29:17;;;;;;;5.75;3.72;;;18.00;63.70;;;;;;4861545;29;20127;-79
2020/12/15 11:31:43;;;;;;;5.45;3.60;;;18.00;63.70;;;;;;4883098;29;20127;-80
2020/12/15 11:34:09;;;;;;;17.17;3.97;;;18.00;63.80;;;;;;4882049;29;20028;-77
2020/12/15 11:36:35;;;;;;;29.38;4.93;;;18.00;63.80;;;;;;4871698;29;20134;-80
2020/12/15 11:39:00;;;;;;;23.50;5.47;;;18.00;63.90;;;;;;4901632;29;20037;-79
2020/12/15 11:41:29;;;;;;;14.32;4.80;;;18.00;63.80;;;;;;4902871;29;20115;-80
2020/12/15 11:43:55;;;;;;;14.77;5.15;;;18.00;63.90;;;;;;4908450;29;20108;-79
2020/12/15 11:46:24;;;;;;;10.20;4.70;;;18.00;63.80;;;;;;4916003;29;20044;-82
2020/12/15 11:48:50;;;;;;;15.20;4.70;;;18.00;63.60;;;;;;4902993;29;20397;-79
2020/12/15 11:51:36;;;;;;;10.55;4.03;;;17.90;63.60;;;;;;4890645;29;20048;-78
2020/12/15 11:54:05;;;;;;;10.65;5.00;;;17.90;63.50;;;;;;4884319;29;20116;-80
2020/12/15 11:56:50;;;;;;;9.02;4.13;;;17.90;63.40;;;;;;4881900;29;20045;-80
2020/12/15 11:59:17;;;;;;;9.30;4.20;;;17.80;63.40;;;;;;4883400;29;20143;-78
2020/12/15 12:01:43;;;;;;;12.38;5.43;;;17.90;63.50;;;;;;4899315;29;20060;-80
2020/12/15 12:04:10;;;;;;;11.10;5.63;;;17.90;63.50;;;;;;4888157;29;20039;-79
2020/12/15 12:06:37;;;;;;;10.30;4.90;;;17.80;63.40;;;;;;4902902;29;20065;-78
2020/12/15 12:09:03;;;;;;;15.32;5.18;;;17.80;63.40;;;;;;4885913;29;20048;-79
2020/12/15 12:11:37;;;;;;;11.85;4.75;;;17.80;63.30;;;;;;4886133;29;20339;-78
2020/12/15 12:14:05;;;;;;;9.60;4.97;;;17.80;63.30;;;;;;4902328;29;20460;-78
2020/12/15 12:16:33;;;;;;;10.70;5.35;;;17.80;63.20;;;;;;4899959;29;20056;-78
2020/12/15 12:18:59;;;;;;;8.05;4.68;;;17.80;63.10;;;;;;4899841;29;20056;-81
2020/12/15 12:21:45;;;;;;;8.18;4.28;;;17.80;63.00;;;;;;4886943;29;20037;-79
2020/12/15 12:24:31;;;;;;;5.20;4.22;;;17.80;63.10;;;;;;4887565;29;20488;-78
2020/12/15 12:27:17;;;;;;;6.57;4.32;;;17.80;63.00;;;;;;4888776;29;20366;-79
2020/12/15 12:29:43;;;;;;;6.07;4.15;;;17.80;62.90;;;;;;4899343;29;20401;-78
2020/12/15 12:32:09;;;;;;;8.13;4.40;;;17.80;62.90;;;;;;4901989;29;20076;-79
2020/12/15 12:34:35;;;;;;;5.15;3.83;;;17.80;62.80;;;;;;4900434;29;20068;-78
2020/12/15 12:37:01;;;;;;;5.88;3.80;;;17.80;62.90;;;;;;4890417;29;20033;-79
2020/12/15 12:39:27;;;;;;;7.53;3.72;;;17.80;62.90;;;;;;4901498;29;20049;-78
2020/12/15 12:41:53;;;;;;;5.72;4.10;;;17.80;62.90;;;;;;4901303;29;20199;-79
2020/12/15 12:44:20;;;;;;;4.95;3.75;;;17.80;62.90;;;;;;4880398;29;20036;-79
2020/12/15 12:46:50;;;;;;;6.45;3.90;;;17.80;63.00;;;;;;4893068;29;20052;-79
2020/12/15 12:49:16;;;;;;;7.05;4.80;;;17.70;62.90;;;;;;4899176;29;20059;-78
2020/12/15 12:51:45;;;;;;;7.65;5.40;;;17.70;63.10;;;;;;4889435;29;20401;-79
2020/12/15 12:54:11;;;;;;;9.77;5.18;;;17.70;63.10;;;;;;4899418;29;20155;-78
2020/12/15 12:56:56;;;;;;;12.77;5.45;;;17.70;63.20;;;;;;4902139;29;20041;-78
2020/12/15 12:59:48;;;;;;;11.75;5.40;;;17.70;63.20;;;;;;4865851;29;20434;-78
2020/12/15 13:02:22;;;;;;;7.32;4.80;;;17.60;63.30;;;;;;4883405;29;20119;-79
2020/12/15 13:04:58;;;;;;;8.65;5.13;;;17.60;63.40;;;;;;4866923;29;20446;-78
2020/12/15 13:07:46;;;;;;;8.10;4.80;;;17.60;63.40;;;;;;4883445;29;20036;-78
2020/12/15 13:10:51;;;;;;;;;;;;;;;;;;;;;
2020/12/15 13:17:57;;;;;;;7.50;4.83;;;17.50;63.40;;;;;;4868238;29;20474;-78
2020/12/15 13:21:30;;;;;;;;;;;;;;;;;;;;;
2020/12/15 13:24:35;;;;;;;5.53;4.57;;;17.50;63.60;;;;;;4807593;29;20191;-78
2020/12/15 13:42:04;;;;;;;8.60;5.90;;;17.40;63.60;;;;;;4870655;29;20104;-77
2020/12/15 13:44:34;;;;;;;6.57;5.90;;;17.30;63.70;;;;;;4866873;29;20048;-81
2020/12/15 13:47:03;;;;;;;8.02;5.85;;;17.40;63.80;;;;;;4884091;29;20039;-80
2020/12/15 13:49:51;;;;;;;7.13;5.28;;;17.30;63.80;;;;;;4875157;29;20040;-78
2020/12/15 13:52:19;;;;;;;6.82;4.95;;;17.30;63.80;;;;;;4883117;29;20051;-78
2020/12/15 13:55:04;;;;;;;6.32;5.03;;;17.30;63.80;;;;;;4873571;29;20049;-78
2020/12/15 13:57:30;;;;;;;6.68;5.53;;;17.30;63.80;;;;;;4884571;29;20051;-78
2020/12/15 13:59:57;;;;;;;7.80;5.07;;;17.30;63.80;;;;;;4883196;29;20048;-79